Port Angeles, Washington
Current Conditions -  °F | °C
As of 5:18 PM on Monday 26 Jan 2015 (Local Time) from KCLM Reporting Station
Few Clouds Few Clouds  
Wind Chill: 43°   Ceiling: Unl
Heat Index: 47°   Visibility: 10mi
Dew Point: 45°   Wind: 8mph
Humidity: 93%   Direction: 230°SW
Pressure: 29.91"   Gusts: NA
Location:  48.12°N, 123.43°W
Report Text: KCLM 270118Z AUTO 23007KT 10SM FEW009 08/07 A2991 RMK AO2 T00830072 $
Loading
Personal Weather Stations






























Interactive Weather Map New forecast layout! Learn more

10-Day Weather Forecast

Advertisements
Track Severe Weather on mobile